Andreas, Pennsylvania
Current Conditions -  °F | °C
As of 6:35 PM on Wednesday 22 Oct 2014 (Local Time) from KHZL Reporting Station
Drizzle Drizzle  
Wind Chill:   Ceiling: 300
Heat Index:   Visibility: 7mi
Dew Point:   Wind: 14mph
Humidity: 93%   Direction: 330°NNW
Pressure: 29.98"   Gusts: 22mph
Location:  40.75°N, 75.79°W
Report Text: KHZL 222235Z AUTO 33012G19KT 7SM DZ OVC003 08/07 A2998 RMK AO2 LTG DSNT SE
Loading
Personal Weather Stations






























Interactive Weather Map
Tropical Storm Tracking
New forecast layout! Learn more

10-Day Weather Forecast

Advertisements
Track Severe Weather on mobile